Terminal Aerodrome Forecast
Issued by NWS Pocatello, ID

Home | Current Version | Previous Version | Text Only | Print | Product List | Glossary On
Versions: 1 2 3 4 5 6 7 8 9 10 11 12 13
000
FTUS45 KPIH 041120
TAFBYI
TAF
KBYI 041120Z 0412/0512 VRB05KT P6SM FEW015 SCT090
     FM041600 29007KT P6SM SKC
     FM042200 VRB05KT P6SM VCTS FEW070CB BKN110 BKN180
     FM050300 VRB05KT P6SM -SHRA VCTS SCT070CB BKN100 OVC160
     FM050900 VRB05KT P6SM -SHRA SCT110 BKN140=

USA.gov is the U.S. government's official web portal to all federal, state and local government web resources and services.